createdAt,value
2023-05-08T00:01:30.698Z,5.97
2023-05-08T00:03:58.222Z,5.67
2023-05-08T00:06:27.500Z,6.00
2023-05-08T00:08:57.233Z,6.20
2023-05-08T00:11:23.884Z,5.83
2023-05-08T00:13:50.683Z,5.67
2023-05-08T00:16:17.816Z,6.73
2023-05-08T00:18:44.745Z,6.10
2023-05-08T00:21:11.820Z,6.40
2023-05-08T00:23:38.874Z,6.43
2023-05-08T00:26:06.070Z,6.93
2023-05-08T00:28:33.174Z,6.17
2023-05-08T00:31:01.963Z,6.10
2023-05-08T00:33:28.930Z,6.30
2023-05-08T00:36:00.560Z,6.17
2023-05-08T00:38:27.736Z,6.20
2023-05-08T00:40:54.813Z,6.20
2023-05-08T00:43:25.702Z,6.20
2023-05-08T00:45:54.784Z,6.87
2023-05-08T00:48:23.518Z,6.60
2023-05-08T00:50:51.677Z,6.50
2023-05-08T00:53:19.942Z,7.00
2023-05-08T00:55:47.040Z,6.47
2023-05-08T00:58:14.702Z,6.93
2023-05-08T01:00:43.537Z,7.23
2023-05-08T01:03:10.743Z,7.17
2023-05-08T01:05:38.060Z,7.57
2023-05-08T01:08:05.228Z,6.97
2023-05-08T01:11:06.610Z,7.53
2023-05-08T01:14:00.214Z,6.30
2023-05-08T01:16:56.306Z,7.57
2023-05-08T01:19:34.993Z,6.87
2023-05-08T01:22:30.470Z,6.83
2023-05-08T01:25:34.991Z,6.60
2023-05-08T01:28:13.929Z,5.70
2023-05-08T01:31:01.767Z,5.23
2023-05-08T01:33:46.302Z,5.33
2023-05-08T01:36:28.933Z,5.40
2023-05-08T01:39:09.982Z,6.20
2023-05-08T01:41:39.349Z,5.00
2023-05-08T01:44:06.413Z,5.63
2023-05-08T01:46:34.274Z,5.43
2023-05-08T01:49:26.441Z,4.90
2023-05-08T01:52:21.749Z,5.80
2023-05-08T01:54:58.719Z,5.10
2023-05-08T01:57:28.982Z,5.40
2023-05-08T01:59:57.964Z,5.40
2023-05-08T02:02:25.421Z,4.70
2023-05-08T02:04:53.553Z,5.20
2023-05-08T02:07:23.846Z,5.10
2023-05-08T02:09:52.045Z,5.60
2023-05-08T02:12:21.985Z,5.10
2023-05-08T02:14:49.970Z,5.43
2023-05-08T02:17:17.804Z,6.03
2023-05-08T02:19:45.717Z,5.30
2023-05-08T02:22:16.574Z,5.37
2023-05-08T02:24:45.150Z,5.77
2023-05-08T02:27:12.822Z,5.87
2023-05-08T02:29:40.329Z,5.97
2023-05-08T02:32:08.860Z,5.97
2023-05-08T02:34:36.363Z,6.20
2023-05-08T02:37:03.779Z,5.37
2023-05-08T02:39:33.652Z,6.20
2023-05-08T02:42:00.811Z,6.23
2023-05-08T02:44:28.044Z,6.80
2023-05-08T02:47:02.589Z,6.27
2023-05-08T02:49:29.711Z,6.63
2023-05-08T02:52:27.297Z,6.20
2023-05-08T02:54:54.350Z,6.70
2023-05-08T02:57:48.028Z,6.83
2023-05-08T03:00:16.805Z,6.57
2023-05-08T03:02:49.870Z,6.83
2023-05-08T03:05:25.850Z,6.80
2023-05-08T03:07:55.792Z,6.97
2023-05-08T03:10:28.284Z,7.27
2023-05-08T03:12:56.896Z,7.10
2023-05-08T03:15:26.671Z,6.93
2023-05-08T03:17:57.276Z,7.40
2023-05-08T03:20:26.976Z,7.20
2023-05-08T03:22:55.895Z,7.63
2023-05-08T03:25:23.236Z,7.97
2023-05-08T03:27:51.997Z,7.50
2023-05-08T03:30:20.523Z,8.47
2023-05-08T03:32:49.663Z,8.13
2023-05-08T03:35:17.604Z,8.03
2023-05-08T03:37:44.572Z,8.10
2023-05-08T03:40:12.106Z,8.83
2023-05-08T03:42:41.258Z,9.10
2023-05-08T03:45:10.981Z,7.87
2023-05-08T03:47:38.795Z,8.60
2023-05-08T03:50:07.055Z,8.60
2023-05-08T03:52:34.194Z,10.00
2023-05-08T03:55:04.430Z,9.63
2023-05-08T04:00:20.430Z,9.43
2023-05-08T04:02:56.315Z,9.23
2023-05-08T04:05:39.686Z,10.23
2023-05-08T04:08:33.496Z,9.93
2023-05-08T04:11:30.775Z,10.33
2023-05-08T04:14:08.363Z,9.17
2023-05-08T04:16:44.601Z,9.53
2023-05-08T04:19:18.274Z,8.50
2023-05-08T04:21:45.714Z,10.20
2023-05-08T04:24:15.003Z,10.43
2023-05-08T04:26:43.973Z,9.80
2023-05-08T04:29:11.115Z,9.50
2023-05-08T04:31:39.830Z,9.77
2023-05-08T04:34:09.161Z,9.87
2023-05-08T04:36:36.526Z,10.67
2023-05-08T04:39:03.981Z,9.37
2023-05-08T04:41:30.757Z,10.00
2023-05-08T04:43:57.539Z,10.77
2023-05-08T04:46:25.539Z,10.50
2023-05-08T04:48:52.718Z,10.13
2023-05-08T04:51:19.795Z,10.10
2023-05-08T04:53:46.456Z,10.60
2023-05-08T04:56:13.096Z,10.07
2023-05-08T04:58:39.886Z,10.60
2023-05-08T05:01:07.073Z,10.80
2023-05-08T05:03:33.891Z,9.77
2023-05-08T05:06:01.420Z,10.37
2023-05-08T05:08:28.187Z,10.07
2023-05-08T05:10:54.877Z,10.30
2023-05-08T05:13:22.158Z,9.60
2023-05-08T05:15:51.379Z,10.80
2023-05-08T05:18:18.399Z,9.53
2023-05-08T05:20:46.053Z,10.03
2023-05-08T05:23:12.817Z,10.43
2023-05-08T05:25:39.954Z,10.00
2023-05-08T05:28:07.152Z,9.10
2023-05-08T05:30:34.450Z,9.93
2023-05-08T05:33:01.110Z,9.53
2023-05-08T05:35:28.279Z,10.47
2023-05-08T05:37:55.547Z,9.90
2023-05-08T05:40:22.201Z,9.97
2023-05-08T05:42:50.837Z,10.00
2023-05-08T05:45:17.582Z,9.30
2023-05-08T05:47:46.369Z,8.90
2023-05-08T05:50:13.699Z,9.83
2023-05-08T05:52:40.556Z,10.10
2023-05-08T05:55:08.033Z,9.57
2023-05-08T05:57:35.126Z,8.90
2023-05-08T06:00:02.054Z,10.63
2023-05-08T06:02:28.809Z,9.10
2023-05-08T06:04:55.982Z,9.20
2023-05-08T06:07:22.688Z,8.70
2023-05-08T06:09:51.070Z,9.43
2023-05-08T06:12:18.733Z,9.00
2023-05-08T06:14:45.420Z,9.70
2023-05-08T06:17:12.514Z,9.10
2023-05-08T06:19:39.619Z,8.97
2023-05-08T06:22:06.726Z,8.80
2023-05-08T06:24:35.465Z,10.07
2023-05-08T06:27:02.593Z,9.00
2023-05-08T06:29:29.323Z,10.23
2023-05-08T06:31:56.835Z,9.33
2023-05-08T06:34:23.917Z,10.27
2023-05-08T06:36:50.970Z,8.80
2023-05-08T06:39:17.803Z,8.77
2023-05-08T06:41:48.422Z,9.73
2023-05-08T06:44:15.581Z,8.80
2023-05-08T06:46:42.818Z,9.07
2023-05-08T06:49:09.521Z,9.20
2023-05-08T06:51:38.185Z,8.47
2023-05-08T06:54:08.338Z,9.33
2023-05-08T06:56:35.552Z,8.37
2023-05-08T06:59:08.290Z,9.17
2023-05-08T07:01:37.446Z,9.40
2023-05-08T07:04:05.094Z,9.53
2023-05-08T07:06:32.258Z,9.30
2023-05-08T07:08:58.993Z,9.17
2023-05-08T07:11:25.869Z,8.50
2023-05-08T07:13:53.114Z,8.50
2023-05-08T07:16:19.956Z,8.73
2023-05-08T07:18:47.091Z,7.67
2023-05-08T07:21:15.720Z,8.93
2023-05-08T07:23:42.410Z,8.30
2023-05-08T07:26:09.144Z,8.73
2023-05-08T07:28:35.857Z,7.87
2023-05-08T07:31:07.204Z,7.80
2023-05-08T07:33:34.618Z,7.70
2023-05-08T07:36:01.913Z,7.40
2023-05-08T07:38:28.638Z,7.00
2023-05-08T07:41:00.524Z,7.53
2023-05-08T07:43:27.474Z,7.33
2023-05-08T07:45:54.353Z,7.70
2023-05-08T07:48:21.212Z,7.77
2023-05-08T07:50:50.160Z,8.00
2023-05-08T07:53:17.398Z,7.57
2023-05-08T07:55:44.080Z,7.43
2023-05-08T07:58:10.758Z,7.13
2023-05-08T08:00:37.853Z,7.60
2023-05-08T08:03:04.619Z,6.70
2023-05-08T08:05:31.419Z,7.25
2023-05-08T08:07:58.050Z,7.85
2023-05-08T08:10:24.801Z,7.55
2023-05-08T08:12:51.627Z,7.35
2023-05-08T08:15:18.474Z,7.45
2023-05-08T08:17:45.261Z,7.05
2023-05-08T08:20:12.280Z,7.15
2023-05-08T08:22:39.191Z,7.35
2023-05-08T08:25:06.410Z,6.85
2023-05-08T08:27:33.085Z,6.72
2023-05-08T08:30:12.843Z,7.28
2023-05-08T08:32:44.072Z,6.78
2023-05-08T08:35:11.295Z,6.50
2023-05-08T08:37:38.149Z,6.72
2023-05-08T08:40:05.472Z,6.65
2023-05-08T08:42:32.244Z,6.95
2023-05-08T08:44:58.952Z,6.97
2023-05-08T08:47:29.720Z,6.68
2023-05-08T08:50:00.527Z,6.32
2023-05-08T08:52:40.938Z,6.30
2023-05-08T08:55:10.495Z,6.22
2023-05-08T08:57:41.783Z,6.70
2023-05-08T09:00:10.963Z,7.05
2023-05-08T09:02:37.838Z,6.68
2023-05-08T09:05:05.276Z,7.10
2023-05-08T09:07:32.848Z,7.15
2023-05-08T09:10:00.273Z,7.00
2023-05-08T09:12:26.960Z,7.38
2023-05-08T09:14:53.626Z,6.45
2023-05-08T09:17:20.401Z,6.85
2023-05-08T09:19:49.649Z,6.78
2023-05-08T09:22:17.252Z,7.15
2023-05-08T09:24:57.398Z,6.82
2023-05-08T09:27:26.363Z,6.80
2023-05-08T09:30:09.101Z,6.47
2023-05-08T09:32:38.476Z,6.78
2023-05-08T09:35:06.953Z,6.53
2023-05-08T09:37:34.203Z,6.85
2023-05-08T09:40:16.853Z,6.95
2023-05-08T09:42:43.816Z,6.32
2023-05-08T09:45:11.501Z,7.18
2023-05-08T09:47:39.532Z,7.45
2023-05-08T09:50:08.178Z,6.20
2023-05-08T09:52:42.604Z,6.57
2023-05-08T09:55:10.845Z,6.28
2023-05-08T09:57:39.469Z,7.38
2023-05-08T10:00:07.431Z,6.97
2023-05-08T10:02:35.246Z,6.88
2023-05-08T10:05:02.857Z,6.95
2023-05-08T10:07:31.484Z,7.03
2023-05-08T10:10:00.255Z,6.50
2023-05-08T10:12:28.298Z,6.53
2023-05-08T10:14:55.847Z,6.22
2023-05-08T10:17:31.974Z,6.60
2023-05-08T10:20:01.146Z,7.75
2023-05-08T10:22:29.130Z,11.15
2023-05-08T10:24:58.599Z,8.25
2023-05-08T10:27:35.065Z,7.40
2023-05-08T10:30:06.403Z,7.17
2023-05-08T10:32:43.399Z,7.80
2023-05-08T10:35:11.913Z,7.50
2023-05-08T10:37:39.983Z,8.27
2023-05-08T10:40:07.502Z,7.32
2023-05-08T10:42:37.563Z,7.10
2023-05-08T10:45:06.388Z,7.40
2023-05-08T10:47:54.898Z,7.47
2023-05-08T10:50:21.682Z,6.93
2023-05-08T10:53:08.640Z,7.32
2023-05-08T10:55:39.849Z,6.68
2023-05-08T10:58:09.755Z,6.95
2023-05-08T11:01:03.487Z,6.75
2023-05-08T11:03:33.303Z,7.60
2023-05-08T11:06:01.817Z,7.70
2023-05-08T11:08:30.720Z,6.93
2023-05-08T11:11:00.437Z,7.37
2023-05-08T11:13:48.310Z,7.15
2023-05-08T11:16:15.046Z,8.18
2023-05-08T11:19:23.332Z,7.50
2023-05-08T11:22:25.934Z,7.20
2023-05-08T11:25:00.686Z,7.88
2023-05-08T11:27:36.243Z,7.43
2023-05-08T11:30:39.673Z,8.53
2023-05-08T11:33:06.921Z,8.03
2023-05-08T11:35:50.577Z,7.63
2023-05-08T11:38:18.252Z,8.70
2023-05-08T11:40:55.606Z,8.88
2023-05-08T11:43:35.954Z,8.87
2023-05-08T11:46:17.290Z,8.43
2023-05-08T11:48:44.826Z,8.43
2023-05-08T11:51:13.527Z,7.63
2023-05-08T11:53:40.727Z,8.03
2023-05-08T11:56:08.077Z,8.53
2023-05-08T11:58:36.550Z,7.78
2023-05-08T12:01:03.797Z,7.30
2023-05-08T12:03:30.799Z,7.57
2023-05-08T12:05:59.023Z,8.05
2023-05-08T12:08:26.182Z,6.63
2023-05-08T12:10:54.529Z,6.43
2023-05-08T12:13:29.090Z,6.40
2023-05-08T12:16:00.972Z,7.25
2023-05-08T12:18:29.374Z,6.75
2023-05-08T12:21:00.839Z,6.13
2023-05-08T12:23:29.547Z,6.82
2023-05-08T12:26:00.134Z,6.97
2023-05-08T12:28:27.256Z,6.47
2023-05-08T12:30:54.427Z,6.37
2023-05-08T12:33:21.623Z,7.57
2023-05-08T12:35:48.526Z,6.57
2023-05-08T12:38:15.448Z,5.50
2023-05-08T12:40:49.097Z,6.05
2023-05-08T12:43:16.223Z,6.15
2023-05-08T12:45:43.156Z,5.82
2023-05-08T12:48:12.325Z,5.65
2023-05-08T12:50:43.784Z,5.97
2023-05-08T12:53:18.474Z,5.93
2023-05-08T12:55:53.404Z,5.75
2023-05-08T12:58:24.405Z,6.30
2023-05-08T13:00:53.041Z,6.85
2023-05-08T13:03:27.710Z,6.93
2023-05-08T13:05:56.887Z,6.70
2023-05-08T13:08:34.193Z,6.45
2023-05-08T13:11:04.168Z,7.15
2023-05-08T13:13:32.730Z,7.00
2023-05-08T13:16:03.758Z,6.47
2023-05-08T13:18:30.633Z,6.60
2023-05-08T13:20:57.795Z,6.15
2023-05-08T13:23:24.670Z,6.53
2023-05-08T13:25:51.641Z,6.20
2023-05-08T13:28:18.348Z,6.82
2023-05-08T13:30:45.010Z,6.63
2023-05-08T13:33:11.762Z,6.63
2023-05-08T13:35:38.990Z,6.95
2023-05-08T13:38:06.092Z,6.22
2023-05-08T13:40:33.274Z,5.85
2023-05-08T13:43:00.136Z,6.60
2023-05-08T13:45:27.000Z,6.07
2023-05-08T13:47:54.471Z,6.80
2023-05-08T13:50:21.831Z,6.30
2023-05-08T13:52:49.662Z,6.82
2023-05-08T13:55:17.622Z,6.20
2023-05-08T13:57:44.876Z,6.32
2023-05-08T14:00:12.191Z,6.60
2023-05-08T14:02:39.422Z,6.80
2023-05-08T14:05:09.636Z,6.47
2023-05-08T14:07:36.780Z,7.00
2023-05-08T14:10:04.050Z,6.07
2023-05-08T14:12:30.964Z,6.10
2023-05-08T14:14:58.243Z,5.60
2023-05-08T14:17:25.440Z,6.33
2023-05-08T14:19:52.318Z,5.90
2023-05-08T14:22:18.975Z,5.85
2023-05-08T14:24:46.181Z,6.65
2023-05-08T14:27:13.267Z,6.07
2023-05-08T14:29:41.377Z,6.30
2023-05-08T14:32:09.325Z,6.28
2023-05-08T14:34:36.047Z,7.57
2023-05-08T14:37:02.913Z,6.60
2023-05-08T14:39:30.007Z,6.70
2023-05-08T14:42:18.099Z,7.10
2023-05-08T14:44:43.800Z,7.43
2023-05-08T14:47:10.574Z,7.13
2023-05-08T14:49:38.837Z,7.25
2023-05-08T14:52:06.978Z,7.05
2023-05-08T14:54:34.190Z,6.85
2023-05-08T14:57:01.111Z,6.70
2023-05-08T14:59:28.217Z,5.70
2023-05-08T15:01:55.415Z,6.43
2023-05-08T15:04:22.222Z,6.32
2023-05-08T15:06:48.987Z,6.30
2023-05-08T15:09:16.845Z,5.95
2023-05-08T15:11:44.051Z,5.25
2023-05-08T15:14:10.891Z,5.63
2023-05-08T15:16:37.690Z,5.93
2023-05-08T15:19:04.473Z,5.80
2023-05-08T15:21:31.577Z,6.40
2023-05-08T15:23:58.270Z,6.22
2023-05-08T15:26:24.955Z,5.95
2023-05-08T15:28:51.696Z,6.13
2023-05-08T15:31:18.743Z,6.13
2023-05-08T15:33:47.668Z,5.57
2023-05-08T15:36:14.685Z,6.43
2023-05-08T15:38:41.954Z,5.47
2023-05-08T15:41:14.579Z,6.03
2023-05-08T15:43:42.325Z,6.63
2023-05-08T15:46:09.278Z,6.15
2023-05-08T15:48:36.091Z,6.47
2023-05-08T15:51:03.157Z,6.32
2023-05-08T15:53:29.976Z,6.28
2023-05-08T15:55:57.324Z,6.40
2023-05-08T15:58:24.776Z,6.07
2023-05-08T16:00:51.851Z,5.68
2023-05-08T16:03:19.215Z,6.00
2023-05-08T16:05:46.181Z,6.15
2023-05-08T16:08:13.682Z,5.85
2023-05-08T16:10:41.343Z,6.55
2023-05-08T16:13:09.098Z,6.25
2023-05-08T16:15:36.044Z,6.68
2023-05-08T16:18:03.068Z,5.45
2023-05-08T16:20:30.263Z,5.80
2023-05-08T16:22:57.291Z,5.65
2023-05-08T16:25:25.010Z,6.13
2023-05-08T16:27:52.005Z,6.30
2023-05-08T16:30:19.253Z,5.70
2023-05-08T16:32:46.095Z,5.68
2023-05-08T16:35:13.770Z,5.75
2023-05-08T16:37:40.910Z,5.63
2023-05-08T16:40:08.554Z,5.63
2023-05-08T16:42:36.162Z,5.60
2023-05-08T16:45:07.181Z,5.72
2023-05-08T16:47:34.360Z,5.18
2023-05-08T16:50:01.313Z,5.40
2023-05-08T16:52:28.443Z,5.30
2023-05-08T16:54:55.175Z,5.10
2023-05-08T16:57:21.878Z,5.40
2023-05-08T16:59:48.609Z,5.45
2023-05-08T17:02:18.888Z,4.90
2023-05-08T17:04:48.981Z,5.32
2023-05-08T17:07:16.109Z,4.60
2023-05-08T17:09:43.444Z,4.80
2023-05-08T17:12:10.536Z,5.00
2023-05-08T17:14:39.867Z,5.10
2023-05-08T17:17:07.304Z,5.90
2023-05-08T17:19:34.162Z,5.22
2023-05-08T17:22:01.097Z,4.83
2023-05-08T17:24:31.287Z,5.60
2023-05-08T17:26:58.487Z,5.05
2023-05-08T17:29:25.233Z,4.83
2023-05-08T17:31:51.925Z,5.00
2023-05-08T17:34:18.757Z,5.07
2023-05-08T17:36:45.442Z,4.30
2023-05-08T17:39:12.741Z,5.15
2023-05-08T17:41:39.474Z,4.60
2023-05-08T17:44:06.950Z,5.00
2023-05-08T17:46:33.630Z,5.40
2023-05-08T17:49:00.296Z,4.50
2023-05-08T17:51:26.971Z,4.90
2023-05-08T17:53:53.843Z,5.20
2023-05-08T17:56:23.185Z,5.30
2023-05-08T17:58:51.799Z,5.22
2023-05-08T18:01:19.642Z,5.37
2023-05-08T18:03:47.998Z,4.93
2023-05-08T18:06:16.078Z,5.40
2023-05-08T18:08:42.955Z,5.53
2023-05-08T18:11:23.666Z,5.50
2023-05-08T18:13:51.948Z,5.43
2023-05-08T18:16:21.034Z,5.30
2023-05-08T18:18:48.290Z,5.43
2023-05-08T18:21:14.978Z,5.40
2023-05-08T18:23:41.656Z,5.63
2023-05-08T18:26:08.429Z,16.73
2023-05-08T18:28:36.202Z,5.43
2023-05-08T18:31:03.431Z,5.50
2023-05-08T18:33:30.152Z,5.57
2023-05-08T18:35:56.886Z,5.40
2023-05-08T18:38:23.620Z,5.80
2023-05-08T18:40:50.491Z,5.70
2023-05-08T18:43:17.620Z,5.73
2023-05-08T18:45:44.468Z,5.60
2023-05-08T18:48:11.566Z,6.30
2023-05-08T18:50:38.448Z,6.87
2023-05-08T18:53:06.359Z,7.80
2023-05-08T18:55:33.021Z,6.40
2023-05-08T18:57:59.732Z,5.73
2023-05-08T19:00:26.997Z,6.28
2023-05-08T19:02:54.289Z,6.07
2023-05-08T19:05:21.100Z,5.77
2023-05-08T19:07:47.811Z,6.70
2023-05-08T19:10:14.920Z,5.20
2023-05-08T19:12:42.276Z,6.33
2023-05-08T19:15:09.535Z,5.90
2023-05-08T19:17:36.901Z,5.57
2023-05-08T19:20:04.378Z,6.07
2023-05-08T19:22:32.909Z,6.63
2023-05-08T19:25:01.784Z,6.17
2023-05-08T19:27:29.094Z,6.00
2023-05-08T19:29:55.939Z,5.37
2023-05-08T19:32:22.720Z,5.97
2023-05-08T19:34:49.899Z,6.10
2023-05-08T19:37:16.727Z,5.97
2023-05-08T19:39:43.443Z,6.77
2023-05-08T19:42:11.430Z,8.90
2023-05-08T19:44:38.590Z,6.83
2023-05-08T19:47:05.445Z,6.17
2023-05-08T19:49:32.237Z,6.37
2023-05-08T19:51:59.361Z,5.90
2023-05-08T19:54:26.551Z,6.40
2023-05-08T19:56:53.308Z,6.53
2023-05-08T19:59:19.972Z,6.83
2023-05-08T20:01:46.738Z,7.07
2023-05-08T20:04:13.631Z,5.97
2023-05-08T20:06:40.955Z,6.17
2023-05-08T20:09:08.661Z,7.03
2023-05-08T20:11:35.413Z,6.93
2023-05-08T20:14:02.583Z,6.90
2023-05-08T20:16:29.754Z,6.80
2023-05-08T20:18:56.648Z,6.93
2023-05-08T20:21:23.769Z,6.80
2023-05-08T20:23:50.483Z,7.47
2023-05-08T20:26:17.548Z,6.33
2023-05-08T20:28:44.619Z,8.37
2023-05-08T20:31:12.534Z,7.27
2023-05-08T20:33:40.105Z,7.60
2023-05-08T20:36:07.447Z,8.13
2023-05-08T20:38:36.656Z,8.87
2023-05-08T20:41:05.225Z,8.23
2023-05-08T20:43:32.427Z,8.73
2023-05-08T20:45:59.921Z,8.53
2023-05-08T20:48:27.530Z,8.30
2023-05-08T20:50:54.700Z,7.53
2023-05-08T20:53:22.531Z,8.53
2023-05-08T20:55:51.429Z,9.57
2023-05-08T20:58:20.761Z,8.97
2023-05-08T21:00:48.299Z,8.87
2023-05-08T21:03:15.331Z,9.73
2023-05-08T21:05:43.530Z,9.33
2023-05-08T21:08:11.375Z,9.23
2023-05-08T21:10:38.792Z,9.37
2023-05-08T21:13:05.633Z,9.80
2023-05-08T21:15:34.896Z,9.00
2023-05-08T21:18:01.851Z,8.97
2023-05-08T21:20:28.553Z,8.50
2023-05-08T21:22:55.406Z,8.57
2023-05-08T21:25:22.601Z,8.67
2023-05-08T21:27:49.337Z,10.00
2023-05-08T21:30:16.688Z,9.13
2023-05-08T21:32:44.637Z,8.97
2023-05-08T21:35:12.833Z,8.27
2023-05-08T21:37:39.688Z,8.73
2023-05-08T21:40:07.202Z,8.13
2023-05-08T21:42:34.087Z,8.57
2023-05-08T21:45:01.214Z,8.60
2023-05-08T21:47:28.735Z,8.87
2023-05-08T21:49:55.584Z,9.50
2023-05-08T21:52:22.542Z,9.50
2023-05-08T21:54:52.896Z,9.63
2023-05-08T21:57:19.663Z,9.37
2023-05-08T21:59:46.613Z,9.03
2023-05-08T22:02:13.862Z,9.00
2023-05-08T22:04:40.986Z,9.53
2023-05-08T22:07:08.099Z,10.10
2023-05-08T22:09:34.839Z,9.23
2023-05-08T22:12:01.925Z,10.00
2023-05-08T22:14:29.104Z,10.10
2023-05-08T22:16:56.166Z,10.10
2023-05-08T22:19:22.961Z,11.13
2023-05-08T22:21:50.081Z,10.63
2023-05-08T22:24:19.013Z,10.07
2023-05-08T22:26:46.055Z,11.40
2023-05-08T22:29:12.791Z,21.63
2023-05-08T22:31:39.548Z,15.60
2023-05-08T22:34:06.406Z,12.57
2023-05-08T22:36:33.330Z,11.80
2023-05-08T22:39:01.004Z,11.77
2023-05-08T22:41:29.629Z,10.90
2023-05-08T22:43:56.663Z,10.60
2023-05-08T22:46:26.804Z,10.10
2023-05-08T22:48:53.861Z,11.83
2023-05-08T22:51:21.001Z,10.63
2023-05-08T22:53:47.910Z,10.80
2023-05-08T22:56:14.576Z,12.00
2023-05-08T22:58:41.275Z,11.40
2023-05-08T23:01:08.050Z,12.43
2023-05-08T23:03:34.967Z,11.07
2023-05-08T23:06:02.113Z,12.47
2023-05-08T23:08:28.803Z,11.50
2023-05-08T23:10:55.465Z,12.47
2023-05-08T23:13:22.670Z,11.53
2023-05-08T23:15:49.404Z,10.10
2023-05-08T23:18:16.568Z,10.97
2023-05-08T23:20:43.259Z,12.37
2023-05-08T23:23:09.946Z,12.00
2023-05-08T23:25:37.026Z,11.40
2023-05-08T23:28:03.695Z,11.17
2023-05-08T23:30:30.780Z,12.27
2023-05-08T23:32:57.923Z,11.87
2023-05-08T23:35:24.654Z,12.70
2023-05-08T23:37:51.928Z,11.77
2023-05-08T23:40:19.050Z,12.93
2023-05-08T23:42:45.755Z,12.00
2023-05-08T23:45:13.228Z,11.47
2023-05-08T23:47:40.531Z,13.40
2023-05-08T23:50:07.650Z,13.27
2023-05-08T23:52:34.359Z,12.87
2023-05-08T23:55:01.117Z,12.70
2023-05-08T23:57:28.202Z,14.60
2023-05-08T23:59:55.299Z,15.60
